LiveATC.Net - Listen to live air traffic control over the Internet!


ICAO: HAAB  IATA: ADD   Airport: Bole International Airport
City: Addis Ababa
Country: Ethiopia   Continent: Africa
HAAB METAR Weather: HAAB 171100Z 17013KT 9999 BKN023 SCT070 18/15 Q1026
HAAB ADS-B Flight Tracking  (ADSBExchange)
HAAB Flight Activity (FlightAware)

HAAB Approach
Feed Status: UP   Listeners: 2
Listen in your browser - HTML5 player (in browser, HTML5)
Click here to listen with your own player (launches your MP3 player)
Archive Access: HAAB Approach
FacilityFrequency
Bole Approach119.700

HAAB Tower
Feed Status: UP   Listeners: 2
Listen in your browser - HTML5 player (in browser, HTML5)
Click here to listen with your own player (launches your MP3 player)
Archive Access: HAAB Tower
FacilityFrequency
Bole Tower118.100

NOTICE

Unauthorized use prohibited. See LiveATC.net Terms of Service


Airport/ARTCC Code
Frequency Search
(e.g., 124.400, 128.75)
Site-wide search
 


Browse Feeds
Top 50 Feeds
HF Oceanic Feeds
Coverage Map
Bad Weather Areas

LiveATC FAQ

Increase Coverage

Contact LiveATC.net
Press Inquiries

LiveATC on iPhone
LiveATC on Android

LiveATC Mobile
(Mobile browser)

ATC Audio Archives
Interesting Recordings

LiveATC Forums


Home Page
About LiveATC.net


Terms of Use
Privacy Policy

AIRMETs/SIGMETs

FAA Airport Status
NAS Status
Arrival Demand


Server Software By:
Icecast.org
Liquidsoap